Time;durP1;ratioP1;P1;durP2;ratioP2;P2;SDS_P1;SDS_P2;PMS_P1;PMS_P2;Temp;Humidity;BMP_temperature;BMP_pressure;BME280_temperature;BME280_humidity;BME280_pressure;Samples;Min_cycle;Max_cycle;Signal;HPM_P1;HPM_P2
2022/09/10 00:00:17;;;;;;;7.00;4.93;;;23.00;47.30;;;;;;5112061;27;45275;-88
2022/09/10 00:02:45;;;;;;;7.80;4.88;;;23.10;47.40;;;;;;5112790;27;45299;-88
2022/09/10 00:05:12;;;;;;;6.88;5.07;;;23.10;47.30;;;;;;5113248;27;45438;-89
2022/09/10 00:07:39;;;;;;;7.93;5.05;;;23.00;47.30;;;;;;5112939;27;46534;-88
2022/09/10 00:10:07;;;;;;;7.57;4.90;;;23.00;47.30;;;;;;5112067;27;45248;-88
2022/09/10 00:12:34;;;;;;;7.45;5.15;;;23.00;47.30;;;;;;5112185;27;45306;-88
2022/09/10 00:15:01;;;;;;;9.50;5.68;;;23.00;47.40;;;;;;5111974;27;44861;-88
2022/09/10 00:17:28;;;;;;;8.18;5.80;;;23.00;47.40;;;;;;5111542;27;45525;-88
2022/09/10 00:19:56;;;;;;;7.85;5.50;;;23.00;47.50;;;;;;5111395;27;45111;-86
2022/09/10 00:22:23;;;;;;;8.40;5.55;;;23.00;47.50;;;;;;5111431;27;45325;-87
2022/09/10 00:24:50;;;;;;;7.60;5.45;;;23.00;47.50;;;;;;5108239;27;45319;-88
2022/09/10 00:27:18;;;;;;;8.30;5.38;;;23.00;47.40;;;;;;5111087;27;47186;-86
2022/09/10 00:29:45;;;;;;;9.05;5.80;;;23.00;47.50;;;;;;5108416;27;45114;-87
2022/09/10 00:32:13;;;;;;;8.52;5.50;;;23.00;47.50;;;;;;5110556;27;45214;-87
2022/09/10 00:34:40;;;;;;;7.70;5.45;;;23.00;47.50;;;;;;5111078;27;45372;-87
2022/09/10 00:37:07;;;;;;;9.00;5.80;;;23.00;47.40;;;;;;5111336;27;46401;-87
2022/09/10 00:39:34;;;;;;;8.85;5.82;;;23.00;47.50;;;;;;5111672;27;45221;-87
2022/09/10 00:42:00;;;;;;;7.20;5.22;;;23.00;47.50;;;;;;5111188;27;45266;-87
2022/09/10 00:45:03;;;;;;;9.07;5.65;;;22.90;47.50;;;;;;5111146;27;45497;-87
2022/09/10 00:47:32;;;;;;;8.23;5.88;;;22.90;47.60;;;;;;5111336;27;46581;-87
2022/09/10 00:50:04;;;;;;;8.07;5.05;;;22.90;47.50;;;;;;5110956;27;45290;-87
2022/09/10 00:52:31;;;;;;;8.30;5.85;;;22.90;47.50;;;;;;5111371;27;45189;-87
2022/09/10 00:54:58;;;;;;;7.10;5.05;;;22.90;47.50;;;;;;5110954;27;45334;-87
2022/09/10 00:57:25;;;;;;;8.00;5.38;;;22.90;47.60;;;;;;5110921;27;46359;-86
2022/09/10 00:59:53;;;;;;;7.82;5.45;;;22.90;47.60;;;;;;5111670;27;45336;-87
2022/09/10 01:02:21;;;;;;;10.13;5.88;;;22.90;47.70;;;;;;5112255;27;45252;-85
2022/09/10 01:04:48;;;;;;;9.63;5.97;;;22.90;47.70;;;;;;5112231;27;45430;-87
2022/09/10 01:07:15;;;;;;;9.15;5.63;;;22.90;47.70;;;;;;5109601;27;45291;-87
2022/09/10 01:09:42;;;;;;;9.65;5.97;;;22.90;47.70;;;;;;5111964;27;45336;-86
2022/09/10 01:12:16;;;;;;;8.95;5.60;;;22.80;47.70;;;;;;5111801;27;45187;-87
2022/09/10 01:14:53;;;;;;;7.90;5.75;;;22.80;47.70;;;;;;5111012;27;45227;-88
2022/09/10 01:17:26;;;;;;;9.43;5.80;;;22.90;47.70;;;;;;5111837;27;45176;-87
2022/09/10 01:20:31;;;;;;;8.30;5.80;;;22.90;47.70;;;;;;5110758;27;45174;-86
2022/09/10 01:23:11;;;;;;;8.73;5.95;;;22.80;47.70;;;;;;5108933;27;45306;-86
2022/09/10 01:25:43;;;;;;;9.00;6.30;;;22.80;47.70;;;;;;5111499;27;45458;-87
2022/09/10 01:28:12;;;;;;;9.35;5.63;;;22.80;47.80;;;;;;5089882;28;45294;-87
2022/09/10 01:30:41;;;;;;;8.98;5.55;;;22.80;47.80;;;;;;5089984;28;45310;-88
2022/09/10 01:33:09;;;;;;;10.18;6.28;;;22.80;47.80;;;;;;5090107;28;45129;-87
2022/09/10 01:35:39;;;;;;;10.40;6.20;;;22.80;47.80;;;;;;5090342;28;45201;-88
2022/09/10 01:38:08;;;;;;;9.73;6.80;;;22.80;47.80;;;;;;5089741;28;45721;-87
2022/09/10 01:40:35;;;;;;;8.80;6.28;;;22.80;47.70;;;;;;5089633;28;45201;-88
2022/09/10 01:43:02;;;;;;;8.57;5.85;;;22.80;47.70;;;;;;5089695;28;45205;-88
2022/09/10 01:45:30;;;;;;;9.65;6.43;;;22.80;47.70;;;;;;5090179;28;45427;-88
2022/09/10 01:48:29;;;;;;;9.55;5.88;;;22.80;47.70;;;;;;5086860;28;45220;-88
2022/09/10 01:51:01;;;;;;;10.38;6.53;;;22.80;47.70;;;;;;5084821;28;45185;-87
2022/09/10 01:53:38;;;;;;;9.15;6.03;;;22.80;47.70;;;;;;5089847;28;45284;-89
2022/09/10 01:56:08;;;;;;;8.57;6.18;;;22.70;47.70;;;;;;5089824;28;45176;-87
2022/09/10 01:58:36;;;;;;;11.20;6.90;;;22.70;47.70;;;;;;5088789;28;45435;-89
2022/09/10 02:01:09;;;;;;;9.82;6.05;;;22.70;47.80;;;;;;5089346;28;45250;-88
2022/09/10 02:03:37;;;;;;;9.68;6.15;;;22.70;47.80;;;;;;5089414;28;45414;-88
2022/09/10 02:06:04;;;;;;;9.02;5.90;;;22.70;47.80;;;;;;5089522;28;45239;-87
2022/09/10 02:08:31;;;;;;;9.00;5.75;;;22.70;47.90;;;;;;5088932;28;45184;-88
2022/09/10 02:10:59;;;;;;;7.95;5.40;;;22.70;47.80;;;;;;5086313;28;45311;-87
2022/09/10 02:13:27;;;;;;;9.73;6.10;;;22.70;47.90;;;;;;5088932;28;45424;-87
2022/09/10 02:15:55;;;;;;;8.27;5.82;;;22.70;47.90;;;;;;5085832;28;45104;-88
2022/09/10 02:18:23;;;;;;;10.95;6.32;;;22.70;47.90;;;;;;5088730;28;45157;-89
2022/09/10 02:20:51;;;;;;;8.07;5.50;;;22.70;47.90;;;;;;5086125;28;45350;-87
2022/09/10 02:23:20;;;;;;;9.27;5.90;;;22.70;47.90;;;;;;5086201;28;44827;-85
2022/09/10 02:25:48;;;;;;;8.60;5.78;;;22.60;47.90;;;;;;5089121;27;45180;-86
2022/09/10 02:28:14;;;;;;;8.98;5.85;;;22.70;47.90;;;;;;5108968;27;46667;-87
2022/09/10 02:30:41;;;;;;;8.35;5.82;;;22.60;47.90;;;;;;5108628;27;45426;-88
2022/09/10 02:33:08;;;;;;;7.47;5.40;;;22.60;47.90;;;;;;5109145;27;45287;-87
2022/09/10 02:35:37;;;;;;;9.63;5.70;;;22.60;47.90;;;;;;5109061;27;45633;-86
2022/09/10 02:38:04;;;;;;;9.45;5.93;;;22.70;48.00;;;;;;5108673;27;45287;-87
2022/09/10 02:40:31;;;;;;;7.57;5.28;;;22.60;48.00;;;;;;5109099;27;44698;-88
2022/09/10 02:42:58;;;;;;;8.93;5.75;;;22.60;48.00;;;;;;5109351;27;45368;-88
2022/09/10 02:45:25;;;;;;;9.93;5.82;;;22.60;48.60;;;;;;5109575;27;45385;-86
2022/09/10 02:47:52;;;;;;;7.55;5.38;;;22.60;47.90;;;;;;5109838;27;46799;-87
2022/09/10 02:50:19;;;;;;;7.55;4.88;;;22.60;47.90;;;;;;5109112;27;45323;-91
2022/09/10 02:52:50;;;;;;;7.15;5.00;;;22.60;47.90;;;;;;5109341;27;45287;-88
2022/09/10 02:55:17;;;;;;;7.97;5.55;;;22.60;48.00;;;;;;5109225;27;45185;-87
2022/09/10 02:57:44;;;;;;;7.65;5.05;;;22.60;48.00;;;;;;5106300;27;45422;-90
2022/09/10 03:00:12;;;;;;;7.75;5.15;;;22.50;48.00;;;;;;5108820;27;45351;-88
2022/09/10 03:02:39;;;;;;;7.20;4.90;;;22.50;48.00;;;;;;5109373;27;45198;-87
2022/09/10 03:05:06;;;;;;;8.27;4.95;;;22.60;48.10;;;;;;5109647;27;45230;-88
2022/09/10 03:07:33;;;;;;;6.78;4.38;;;22.50;48.10;;;;;;5100630;27;48656;-87
2022/09/10 03:10:01;;;;;;;7.53;4.68;;;22.60;48.10;;;;;;5129154;27;45298;-88
2022/09/10 03:12:28;;;;;;;8.82;4.97;;;22.50;48.10;;;;;;5127264;27;45287;-88
2022/09/10 03:14:57;;;;;;;5.30;4.10;;;22.50;48.00;;;;;;5126649;27;45274;-87
2022/09/10 03:17:24;;;;;;;7.20;4.63;;;22.50;48.70;;;;;;5128966;27;45447;-87
2022/09/10 03:19:51;;;;;;;7.30;4.63;;;22.50;48.10;;;;;;5129749;27;45453;-88
2022/09/10 03:22:18;;;;;;;6.00;3.95;;;22.50;48.00;;;;;;5129943;27;45280;-88
2022/09/10 03:24:46;;;;;;;5.57;3.90;;;22.50;48.10;;;;;;5130048;27;45264;-87
2022/09/10 03:27:15;;;;;;;6.47;4.45;;;22.50;48.10;;;;;;5126514;27;46511;-88
2022/09/10 03:29:43;;;;;;;6.20;4.10;;;22.50;48.10;;;;;;5109041;27;45344;-88
2022/09/10 03:32:10;;;;;;;5.60;3.97;;;22.50;48.10;;;;;;5109550;27;45216;-87
2022/09/10 03:34:38;;;;;;;5.13;4.10;;;22.50;48.10;;;;;;5106388;27;45252;-89
2022/09/10 03:37:05;;;;;;;6.25;4.10;;;22.50;48.10;;;;;;5111846;27;47505;-88
2022/09/10 03:39:32;;;;;;;6.60;4.10;;;22.50;48.10;;;;;;5126419;27;45384;-88
2022/09/10 03:41:59;;;;;;;6.30;4.00;;;22.50;48.00;;;;;;5129556;27;45230;-89
2022/09/10 03:44:27;;;;;;;5.85;4.07;;;22.50;48.10;;;;;;5110974;27;45220;-87
2022/09/10 03:47:00;;;;;;;5.72;3.67;;;22.50;48.10;;;;;;5129031;27;45491;-88
2022/09/10 03:49:27;;;;;;;4.90;3.30;;;22.50;48.10;;;;;;5126858;27;45152;-88
2022/09/10 03:51:55;;;;;;;4.57;3.40;;;22.50;48.10;;;;;;5126590;27;45182;-88
2022/09/10 03:54:23;;;;;;;5.78;4.07;;;22.50;48.20;;;;;;5129730;27;45341;-87
2022/09/10 03:56:51;;;;;;;5.40;3.63;;;22.50;48.10;;;;;;5129362;27;46984;-88
2022/09/10 03:59:18;;;;;;;6.13;3.60;;;22.40;48.20;;;;;;5128731;27;45345;-89
2022/09/10 04:01:46;;;;;;;4.88;3.25;;;22.40;48.20;;;;;;5129079;27;45272;-86
2022/09/10 04:04:14;;;;;;;7.05;3.80;;;22.40;48.20;;;;;;5128799;27;45340;-90
2022/09/10 04:06:41;;;;;;;4.53;3.25;;;22.40;48.20;;;;;;5125822;27;46570;-86
2022/09/10 04:09:08;;;;;;;5.05;3.70;;;22.40;48.30;;;;;;5127872;27;45188;-87
2022/09/10 04:11:35;;;;;;;5.25;3.22;;;22.40;48.20;;;;;;5128669;27;45358;-88
2022/09/10 04:14:02;;;;;;;4.72;3.20;;;22.40;48.30;;;;;;5129211;27;45287;-87
2022/09/10 04:16:31;;;;;;;4.10;2.97;;;22.40;48.30;;;;;;5128630;27;48406;-88
2022/09/10 04:18:59;;;;;;;4.63;3.17;;;22.40;48.30;;;;;;5128350;27;45141;-87
2022/09/10 04:21:26;;;;;;;4.15;3.20;;;22.40;48.30;;;;;;5128737;27;45269;-89
2022/09/10 04:23:54;;;;;;;3.67;2.83;;;22.40;48.30;;;;;;5126177;27;45388;-88
2022/09/10 04:26:22;;;;;;;4.40;3.28;;;22.40;48.30;;;;;;5127867;27;45263;-90
2022/09/10 04:28:49;;;;;;;3.10;2.67;;;22.30;48.30;;;;;;5109093;27;45183;-89
2022/09/10 04:31:16;;;;;;;4.78;3.10;;;22.40;48.40;;;;;;5107661;27;45301;-90
2022/09/10 04:33:43;;;;;;;4.13;3.10;;;22.30;48.40;;;;;;5107734;27;45308;-88
2022/09/10 04:36:13;;;;;;;3.05;2.75;;;22.30;49.10;;;;;;5104450;27;46256;-89
2022/09/10 04:38:40;;;;;;;2.97;2.53;;;22.30;48.40;;;;;;5107451;27;45199;-90
2022/09/10 04:41:08;;;;;;;3.90;2.50;;;22.30;48.40;;;;;;5110422;27;45245;-89
2022/09/10 04:43:35;;;;;;;3.90;2.45;;;22.30;48.40;;;;;;5111382;27;45573;-88
2022/09/10 04:46:02;;;;;;;3.08;2.63;;;22.30;48.40;;;;;;5108454;27;45690;-89
2022/09/10 04:48:32;;;;;;;2.75;2.28;;;22.30;48.50;;;;;;5110889;27;45131;-89
2022/09/10 04:50:59;;;;;;;2.72;2.20;;;22.30;48.40;;;;;;5111283;27;45401;-89
2022/09/10 04:53:27;;;;;;;2.97;2.30;;;22.30;48.50;;;;;;5108389;27;45238;-89
2022/09/10 04:55:55;;;;;;;5.05;2.67;;;22.30;48.40;;;;;;5110570;27;46519;-88
2022/09/10 04:58:23;;;;;;;4.10;2.38;;;22.30;49.00;;;;;;5110472;27;45322;-87
2022/09/10 05:00:50;;;;;;;4.07;2.35;;;22.30;48.40;;;;;;5110067;27;45246;-88
2022/09/10 05:03:18;;;;;;;4.25;2.47;;;22.30;48.50;;;;;;5112487;27;45197;-89
2022/09/10 05:05:46;;;;;;;3.17;2.17;;;22.30;48.50;;;;;;5107897;27;46599;-90
2022/09/10 05:08:13;;;;;;;2.60;2.20;;;22.30;48.60;;;;;;5110315;27;45315;-89
2022/09/10 05:10:44;;;;;;;3.28;2.35;;;22.20;48.50;;;;;;5110529;27;45256;-89
2022/09/10 05:13:11;;;;;;;3.13;2.20;;;22.30;48.50;;;;;;5110793;27;45304;-91
2022/09/10 05:18:06;;;;;;;3.53;2.35;;;22.30;48.50;;;;;;5047877;28;45182;-84
2022/09/10 05:20:33;;;;;;;2.88;2.10;;;22.30;48.50;;;;;;5050681;28;45249;-84
2022/09/10 05:23:00;;;;;;;3.20;2.38;;;22.20;48.40;;;;;;5048994;28;45198;-84
2022/09/10 05:25:27;;;;;;;3.40;2.47;;;22.30;48.50;;;;;;5048455;28;46366;-84
2022/09/10 05:27:55;;;;;;;2.30;2.10;;;22.30;48.50;;;;;;5048253;28;45332;-84
2022/09/10 05:30:22;;;;;;;2.40;1.80;;;22.30;48.50;;;;;;5048713;28;45214;-83
2022/09/10 05:32:52;;;;;;;2.53;2.15;;;22.30;48.50;;;;;;5048149;28;45487;-84
2022/09/10 05:35:19;;;;;;;2.83;2.10;;;22.20;48.50;;;;;;5048282;28;46419;-83
2022/09/10 05:37:46;;;;;;;2.70;2.10;;;22.30;48.60;;;;;;5046013;28;45281;-81
2022/09/10 05:40:14;;;;;;;2.65;1.80;;;22.20;48.60;;;;;;5050200;28;45237;-83
2022/09/10 05:42:40;;;;;;;2.40;1.70;;;22.30;48.60;;;;;;5050098;28;45234;-83
2022/09/10 05:45:10;;;;;;;3.50;2.10;;;22.20;48.60;;;;;;5049271;28;46381;-84
2022/09/10 05:47:37;;;;;;;2.58;1.75;;;22.20;48.60;;;;;;5068261;28;45141;-84
2022/09/10 05:50:04;;;;;;;2.35;1.70;;;22.20;48.60;;;;;;5068479;28;45318;-84
2022/09/10 05:52:31;;;;;;;2.72;1.70;;;22.20;48.70;;;;;;5069730;28;45404;-84
2022/09/10 05:54:58;;;;;;;2.72;2.00;;;22.20;48.70;;;;;;5070456;28;45427;-84
2022/09/10 05:57:25;;;;;;;2.47;1.90;;;22.20;48.70;;;;;;5069810;28;45371;-84
2022/09/10 05:59:52;;;;;;;2.20;1.67;;;22.20;48.70;;;;;;5069266;28;45250;-84
2022/09/10 06:02:21;;;;;;;1.95;1.52;;;22.20;48.70;;;;;;5069624;28;45604;-84
2022/09/10 06:04:47;;;;;;;2.28;1.75;;;22.20;48.70;;;;;;5070992;28;45529;-84
2022/09/10 06:07:14;;;;;;;5.13;1.77;;;22.20;48.70;;;;;;5069096;28;45300;-84
2022/09/10 06:09:41;;;;;;;2.15;1.42;;;22.20;48.70;;;;;;5068654;28;45277;-84
2022/09/10 06:12:08;;;;;;;1.98;1.75;;;22.20;48.70;;;;;;5072794;28;45251;-84
2022/09/10 06:14:35;;;;;;;1.90;1.50;;;22.20;48.70;;;;;;5071086;28;45237;-84
2022/09/10 06:17:02;;;;;;;2.35;1.60;;;22.20;48.80;;;;;;5080594;28;45307;-84
2022/09/10 06:19:30;;;;;;;2.67;1.60;;;22.20;48.80;;;;;;5089696;28;45291;-84
2022/09/10 06:21:57;;;;;;;1.77;1.40;;;22.20;48.90;;;;;;5091451;28;45119;-84
2022/09/10 06:24:24;;;;;;;1.80;1.50;;;22.20;48.90;;;;;;5090071;28;46742;-83
2022/09/10 06:26:51;;;;;;;1.52;1.42;;;22.20;48.90;;;;;;5088360;28;45292;-83
2022/09/10 06:29:18;;;;;;;2.25;1.60;;;22.20;48.90;;;;;;5086852;28;45428;-84
2022/09/10 06:31:46;;;;;;;2.20;1.60;;;22.20;49.00;;;;;;5090112;28;45249;-84
2022/09/10 06:34:15;;;;;;;1.30;1.20;;;22.20;49.00;;;;;;5089281;28;45463;-84
2022/09/10 06:36:44;;;;;;;1.92;1.20;;;22.10;48.90;;;;;;5089073;28;45285;-83
2022/09/10 06:39:11;;;;;;;1.85;1.30;;;22.20;48.90;;;;;;5089038;28;45170;-84
2022/09/10 06:41:38;;;;;;;1.77;1.33;;;22.20;48.90;;;;;;5089717;28;45200;-84
2022/09/10 06:44:04;;;;;;;1.92;1.20;;;22.10;48.90;;;;;;5089111;28;47333;-85
2022/09/10 06:46:31;;;;;;;1.38;1.27;;;22.20;48.90;;;;;;5089513;28;45307;-84
2022/09/10 06:49:01;;;;;;;1.40;1.25;;;22.10;48.90;;;;;;5088700;28;45394;-84
2022/09/10 06:51:28;;;;;;;1.30;1.20;;;22.10;49.00;;;;;;5088553;28;45537;-86
2022/09/10 06:53:56;;;;;;;1.52;1.20;;;22.10;49.50;;;;;;5088483;28;45480;-85
2022/09/10 06:56:23;;;;;;;1.55;1.10;;;22.10;49.90;;;;;;5083604;28;45390;-85
2022/09/10 06:58:50;;;;;;;1.00;0.90;;;22.10;49.80;;;;;;5087832;28;45310;-86
2022/09/10 07:01:18;;;;;;;1.83;1.20;;;22.10;50.10;;;;;;5088269;28;45294;-85
2022/09/10 07:03:45;;;;;;;2.47;0.82;;;22.10;50.50;;;;;;5087094;28;46735;-86
2022/09/10 07:06:14;;;;;;;1.40;1.13;;;22.10;50.10;;;;;;5086814;28;45285;-86
2022/09/10 07:08:41;;;;;;;0.85;0.70;;;22.10;50.50;;;;;;5087611;28;45320;-85
2022/09/10 07:11:12;;;;;;;1.02;0.80;;;22.00;51.70;;;;;;5087932;28;45185;-86
2022/09/10 07:13:39;;;;;;;3.03;1.10;;;22.00;51.70;;;;;;5087977;28;45414;-86
2022/09/10 07:16:06;;;;;;;1.45;0.93;;;22.00;51.80;;;;;;5084735;28;45334;-84
2022/09/10 07:18:33;;;;;;;2.50;0.90;;;22.00;51.50;;;;;;5087462;28;45131;-85
2022/09/10 07:21:06;;;;;;;2.67;0.73;;;22.00;51.50;;;;;;5087641;28;45320;-86
2022/09/10 07:23:34;;;;;;;1.00;0.70;;;22.00;52.00;;;;;;5087185;28;46719;-85
2022/09/10 07:26:03;;;;;;;2.08;0.80;;;22.00;51.80;;;;;;5086925;28;45252;-85
2022/09/10 07:28:31;;;;;;;0.95;0.77;;;22.00;51.80;;;;;;5086611;28;45431;-85
2022/09/10 07:30:58;;;;;;;0.52;0.50;;;22.00;51.60;;;;;;5087038;28;44706;-86
2022/09/10 07:33:25;;;;;;;1.40;0.73;;;22.00;51.50;;;;;;5088344;28;45547;-87
2022/09/10 07:35:52;;;;;;;1.05;0.50;;;22.00;51.40;;;;;;5075152;28;45258;-85
2022/09/10 07:38:19;;;;;;;1.45;0.70;;;22.00;51.40;;;;;;5075833;28;45311;-81
2022/09/10 07:40:47;;;;;;;2.05;0.52;;;22.00;51.50;;;;;;5063149;28;45638;-79
2022/09/10 07:43:14;;;;;;;2.28;0.60;;;22.00;51.60;;;;;;5058458;28;46570;-83
2022/09/10 07:45:42;;;;;;;0.95;0.63;;;22.00;51.50;;;;;;5062687;28;45399;-80
2022/09/10 07:48:10;;;;;;;1.60;0.65;;;22.00;51.80;;;;;;5065388;28;45217;-81
2022/09/10 07:50:37;;;;;;;1.23;0.90;;;22.00;51.80;;;;;;5052829;28;45380;-80
2022/09/10 07:53:04;;;;;;;1.38;0.70;;;22.00;52.50;;;;;;5063449;28;46626;-79
2022/09/10 07:55:31;;;;;;;1.42;0.60;;;22.00;52.10;;;;;;5066505;28;45197;-78
2022/09/10 07:57:59;;;;;;;1.75;0.70;;;22.00;52.50;;;;;;5062983;28;45620;-79
2022/09/10 08:00:28;;;;;;;1.05;0.55;;;22.00;52.70;;;;;;5061570;28;45343;-78
2022/09/10 08:02:56;;;;;;;2.00;0.70;;;22.00;52.40;;;;;;5061520;28;48093;-82
2022/09/10 08:05:23;;;;;;;1.60;0.80;;;22.00;52.60;;;;;;5062023;28;45708;-82
2022/09/10 08:07:52;;;;;;;2.22;0.80;;;22.00;52.80;;;;;;5067287;28;45461;-80
2022/09/10 08:10:19;;;;;;;1.02;0.60;;;22.00;52.90;;;;;;5062274;28;45435;-82
2022/09/10 08:12:46;;;;;;;1.50;0.60;;;22.00;53.50;;;;;;5066324;28;47128;-79
2022/09/10 08:15:13;;;;;;;1.30;0.50;;;22.00;53.40;;;;;;5062408;28;45376;-80
2022/09/10 08:17:40;;;;;;;1.85;0.60;;;22.00;52.80;;;;;;5065131;28;45508;-80
2022/09/10 08:20:10;;;;;;;1.45;0.47;;;22.00;52.80;;;;;;5067362;28;45598;-79
2022/09/10 08:22:36;;;;;;;1.48;0.70;;;22.00;52.80;;;;;;5064695;28;45386;-82
2022/09/10 08:25:04;;;;;;;2.03;0.93;;;22.00;52.90;;;;;;5065848;28;45406;-79
2022/09/10 08:27:32;;;;;;;0.77;0.70;;;22.00;53.10;;;;;;5062689;28;45439;-82
2022/09/10 08:30:00;;;;;;;1.35;0.70;;;22.00;52.80;;;;;;5064493;28;45418;-81
2022/09/10 08:32:27;;;;;;;3.45;0.85;;;22.00;52.60;;;;;;5066035;28;45346;-76
2022/09/10 08:34:54;;;;;;;1.25;0.80;;;22.00;52.70;;;;;;5065833;28;45572;-82
2022/09/10 08:37:24;;;;;;;4.32;0.70;;;22.00;52.60;;;;;;5066248;28;45442;-79
2022/09/10 08:39:51;;;;;;;1.67;0.80;;;22.00;53.00;;;;;;5063289;28;45819;-83
2022/09/10 08:42:20;;;;;;;2.33;1.20;;;22.10;53.00;;;;;;5062772;28;45482;-86
2022/09/10 08:44:48;;;;;;;1.50;0.98;;;22.10;53.20;;;;;;5064440;28;45306;-83
2022/09/10 08:47:32;;;;;;;2.22;0.95;;;22.00;52.70;;;;;;5066727;28;45293;-82
2022/09/10 08:50:00;;;;;;;5.55;1.60;;;22.00;52.60;;;;;;5064724;28;45352;-83
2022/09/10 08:52:32;;;;;;;3.28;1.60;;;22.00;52.60;;;;;;5065448;28;45534;-83
2022/09/10 08:55:03;;;;;;;3.85;1.85;;;22.10;52.80;;;;;;5066362;28;45447;-81
2022/09/10 08:57:32;;;;;;;6.93;2.00;;;22.10;52.90;;;;;;5064577;28;45604;-81
2022/09/10 08:59:59;;;;;;;7.25;2.00;;;22.10;52.70;;;;;;5066818;28;45365;-80
2022/09/10 09:02:31;;;;;;;7.50;1.85;;;22.10;52.80;;;;;;5060743;28;45884;-80
2022/09/10 09:05:01;;;;;;;6.97;1.50;;;22.10;53.20;;;;;;5064330;28;45272;-80
2022/09/10 09:07:36;;;;;;;7.75;2.35;;;22.10;53.10;;;;;;5064185;28;45480;-81
2022/09/10 09:10:03;;;;;;;12.07;2.33;;;22.10;52.90;;;;;;5059449;28;45458;-76
2022/09/10 09:12:32;;;;;;;7.20;2.47;;;22.10;53.00;;;;;;5064299;28;46802;-78
2022/09/10 09:15:05;;;;;;;9.13;2.15;;;22.10;52.70;;;;;;5065207;28;45358;-81
2022/09/10 09:17:40;;;;;;;10.98;2.63;;;22.10;52.70;;;;;;5064563;28;45376;-81
2022/09/10 09:20:14;;;;;;;15.15;2.80;;;22.10;53.10;;;;;;5061645;28;45531;-81
2022/09/10 09:22:45;;;;;;;7.38;2.67;;;22.10;53.60;;;;;;5064034;28;46816;-84
2022/09/10 09:25:21;;;;;;;12.18;3.28;;;22.10;53.30;;;;;;5065077;28;45517;-84
2022/09/10 09:27:48;;;;;;;17.55;3.78;;;22.10;53.00;;;;;;5064414;28;45523;-76
2022/09/10 09:30:17;;;;;;;13.57;3.80;;;22.20;52.90;;;;;;5065444;28;45409;-79
2022/09/10 09:32:44;;;;;;;11.88;3.60;;;22.20;52.70;;;;;;5061823;28;47860;-81
2022/09/10 09:35:22;;;;;;;14.52;3.25;;;22.20;52.80;;;;;;5065144;28;45410;-80
2022/09/10 09:37:50;;;;;;;15.82;4.53;;;22.20;52.80;;;;;;5062104;28;45449;-78
2022/09/10 09:40:26;;;;;;;10.77;3.58;;;22.20;53.00;;;;;;5069196;28;45394;-79
2022/09/10 09:42:54;;;;;;;13.98;3.28;;;22.20;53.70;;;;;;5065226;28;45533;-84
2022/09/10 09:45:24;;;;;;;7.50;3.00;;;22.20;53.10;;;;;;5065795;28;45469;-77
2022/09/10 09:47:53;;;;;;;8.75;2.88;;;22.20;53.40;;;;;;5059083;28;45730;-78
2022/09/10 09:50:20;;;;;;;8.95;2.78;;;22.20;53.40;;;;;;5063768;28;45421;-80
2022/09/10 09:52:47;;;;;;;10.32;3.00;;;22.20;53.10;;;;;;5065285;28;46649;-81
2022/09/10 09:55:21;;;;;;;12.73;3.35;;;22.10;53.20;;;;;;5065069;28;45343;-79
2022/09/10 09:57:47;;;;;;;13.30;3.75;;;22.20;53.10;;;;;;5064116;28;45540;-80
2022/09/10 10:00:33;;;;;;;12.10;3.55;;;22.20;53.00;;;;;;5066626;28;45404;-82
2022/09/10 10:03:05;;;;;;;10.60;3.22;;;22.20;53.00;;;;;;5066821;28;46722;-83
2022/09/10 10:05:32;;;;;;;8.05;3.30;;;22.20;53.30;;;;;;5064827;28;45322;-80
2022/09/10 10:07:59;;;;;;;10.32;3.15;;;22.20;53.20;;;;;;5066609;28;45407;-86
2022/09/10 10:10:27;;;;;;;10.38;3.28;;;22.20;53.70;;;;;;5064873;28;45503;-81
2022/09/10 10:12:54;;;;;;;9.77;3.17;;;22.20;52.90;;;;;;5068629;28;45681;-83
2022/09/10 10:15:35;;;;;;;10.18;3.20;;;22.20;53.00;;;;;;5075834;28;45326;-83
2022/09/10 10:18:02;;;;;;;8.85;3.50;;;22.20;53.10;;;;;;5086199;27;45336;-82
2022/09/10 10:20:36;;;;;;;5.70;2.80;;;22.20;53.10;;;;;;5068098;28;45534;-82
2022/09/10 10:23:03;;;;;;;7.95;2.80;;;22.20;53.10;;;;;;5057947;28;45619;-81
2022/09/10 10:25:39;;;;;;;5.15;2.30;;;22.20;53.10;;;;;;5062665;28;45498;-85
2022/09/10 10:28:15;;;;;;;6.78;2.10;;;22.20;53.40;;;;;;5065742;28;45525;-85
2022/09/10 10:30:43;;;;;;;6.93;2.38;;;22.20;53.40;;;;;;5071430;28;45383;-81
2022/09/10 10:33:18;;;;;;;6.07;2.30;;;22.20;53.20;;;;;;5071188;28;45479;-81
2022/09/10 10:35:46;;;;;;;4.78;2.38;;;22.20;53.30;;;;;;5065323;28;45458;-81
2022/09/10 10:38:29;;;;;;;4.75;2.05;;;22.20;53.30;;;;;;5070242;28;45353;-78
2022/09/10 10:41:32;;;;;;;5.28;2.42;;;22.20;53.50;;;;;;5065801;28;45513;-81
2022/09/10 10:44:16;;;;;;;6.07;1.92;;;22.20;53.40;;;;;;5071136;28;46551;-75
2022/09/10 10:46:47;;;;;;;5.40;1.67;;;22.20;53.60;;;;;;5065214;28;45501;-76
2022/09/10 10:49:19;;;;;;;3.92;1.88;;;22.20;53.60;;;;;;5071955;28;45404;-78
2022/09/10 10:51:50;;;;;;;6.43;2.10;;;22.20;53.70;;;;;;5067634;28;45745;-83
2022/09/10 10:54:36;;;;;;;5.30;2.28;;;22.20;53.60;;;;;;5066673;28;46979;-82
2022/09/10 10:57:10;;;;;;;8.68;2.40;;;22.20;53.50;;;;;;5077578;28;45595;-77
2022/09/10 10:59:44;;;;;;;5.60;2.00;;;22.20;53.70;;;;;;5089037;28;45343;-80
2022/09/10 11:02:13;;;;;;;7.07;2.38;;;22.20;53.50;;;;;;5090496;28;45189;-78
2022/09/10 11:04:42;;;;;;;7.50;2.13;;;22.20;53.40;;;;;;5071717;28;46874;-75
2022/09/10 11:07:11;;;;;;;7.63;1.95;;;22.30;53.70;;;;;;5067955;28;45431;-79
2022/09/10 11:09:39;;;;;;;6.55;2.35;;;22.30;53.60;;;;;;5080596;28;45460;-84
2022/09/10 11:12:10;;;;;;;5.50;2.22;;;22.30;53.30;;;;;;5090735;28;45320;-78
2022/09/10 11:14:39;;;;;;;6.80;1.90;;;22.40;53.40;;;;;;5085763;28;45716;-75
2022/09/10 11:17:10;;;;;;;8.02;1.77;;;22.40;53.20;;;;;;5089154;28;45289;-77
2022/09/10 11:19:38;;;;;;;5.93;1.98;;;22.40;53.10;;;;;;5080839;28;45298;-81
2022/09/10 11:22:09;;;;;;;5.80;1.67;;;22.50;53.10;;;;;;5074519;28;45412;-83
2022/09/10 11:24:39;;;;;;;4.90;1.77;;;22.50;53.00;;;;;;5073853;28;45496;-82
2022/09/10 11:27:10;;;;;;;3.72;1.70;;;22.50;53.70;;;;;;5073746;28;45367;-82
2022/09/10 11:29:40;;;;;;;4.47;1.50;;;22.50;53.10;;;;;;5070858;28;45427;-81
2022/09/10 11:32:10;;;;;;;4.97;1.55;;;22.50;53.30;;;;;;5072967;28;45391;-78
2022/09/10 11:34:46;;;;;;;5.22;1.67;;;22.50;53.20;;;;;;5064576;28;46367;-82
2022/09/10 11:37:15;;;;;;;5.65;1.40;;;22.50;53.10;;;;;;5072229;28;44987;-84
2022/09/10 11:39:43;;;;;;;1.98;1.10;;;22.50;53.10;;;;;;5069366;28;45498;-81
2022/09/10 11:42:14;;;;;;;5.82;1.45;;;22.50;53.10;;;;;;5070298;28;45190;-78
2022/09/10 11:44:47;;;;;;;3.95;1.20;;;22.60;53.40;;;;;;5082717;28;46256;-82
2022/09/10 11:47:16;;;;;;;4.28;1.30;;;22.60;53.80;;;;;;5090351;28;45439;-79
2022/09/10 11:49:47;;;;;;;4.05;1.10;;;22.70;53.50;;;;;;5075684;28;45329;-75
2022/09/10 11:52:14;;;;;;;1.88;1.10;;;22.70;53.20;;;;;;5074268;28;45307;-81
2022/09/10 11:54:41;;;;;;;5.65;1.42;;;22.70;53.10;;;;;;5062311;28;45634;-82
2022/09/10 11:57:12;;;;;;;4.18;1.05;;;22.70;53.40;;;;;;5053485;28;44633;-80
2022/09/10 11:59:52;;;;;;;1.58;1.10;;;22.70;53.30;;;;;;5086006;28;45367;-81
2022/09/10 12:02:41;;;;;;;2.33;1.00;;;22.70;53.10;;;;;;5093722;28;45285;-79
2022/09/10 12:05:15;;;;;;;2.05;0.93;;;22.70;53.00;;;;;;5038997;28;45661;-79
2022/09/10 12:07:45;;;;;;;3.53;1.35;;;22.80;53.00;;;;;;5069552;28;45524;-83
2022/09/10 12:10:16;;;;;;;4.18;1.08;;;22.90;52.80;;;;;;5075635;28;45164;-85
2022/09/10 12:12:45;;;;;;;7.22;1.30;;;23.00;52.90;;;;;;5093353;28;45240;-81
2022/09/10 12:15:17;;;;;;;3.85;1.20;;;23.10;52.90;;;;;;5078362;28;46674;-77
2022/09/10 12:17:46;;;;;;;4.70;1.00;;;23.10;52.90;;;;;;5087893;28;45319;-76
2022/09/10 12:20:15;;;;;;;7.82;1.10;;;23.20;52.60;;;;;;5078400;28;45443;-81
2022/09/10 12:22:42;;;;;;;3.55;1.00;;;23.30;52.80;;;;;;5079437;28;45143;-83
2022/09/10 12:25:24;;;;;;;5.72;1.50;;;23.30;53.30;;;;;;5075610;28;47355;-82
2022/09/10 12:27:54;;;;;;;7.22;1.40;;;23.40;52.60;;;;;;5061134;28;45150;-81
2022/09/10 12:30:54;;;;;;;3.95;1.60;;;23.50;52.50;;;;;;5076050;28;45299;-79
2022/09/10 12:33:58;;;;;;;11.45;1.40;;;23.50;52.70;;;;;;5061811;28;45207;-79
2022/09/10 12:37:14;;;;;;;8.18;1.55;;;23.50;52.40;;;;;;5080003;28;45436;-84
2022/09/10 12:39:41;;;;;;;4.30;1.33;;;23.60;52.30;;;;;;5090964;28;45276;-82
2022/09/10 12:42:32;;;;;;;8.05;1.35;;;23.70;52.30;;;;;;5089496;28;45434;-82
2022/09/10 12:45:00;;;;;;;2.63;1.50;;;23.80;52.00;;;;;;5081782;28;45322;-76
2022/09/10 12:47:32;;;;;;;6.28;1.55;;;23.80;51.90;;;;;;5091817;28;45571;-76
2022/09/10 12:50:00;;;;;;;4.78;1.73;;;23.80;51.60;;;;;;5079447;28;45238;-81
2022/09/10 12:52:30;;;;;;;7.35;1.20;;;23.90;51.60;;;;;;5091448;28;45235;-76
2022/09/10 12:55:00;;;;;;;8.35;1.35;;;23.90;51.70;;;;;;5070996;28;45364;-84
2022/09/10 12:57:30;;;;;;;9.15;1.63;;;23.80;51.70;;;;;;5090715;28;46742;-84
2022/09/10 13:00:17;;;;;;;3.78;1.20;;;23.80;51.90;;;;;;5084652;28;45442;-81